createdAt,value
2023-06-28T00:00:16.788Z,98333.42
2023-06-28T00:03:04.411Z,98337.02
2023-06-28T00:05:32.123Z,98332.92
2023-06-28T00:07:59.836Z,98334.48
2023-06-28T00:10:27.445Z,98332.38
2023-06-28T00:12:56.755Z,98331.14
2023-06-28T00:15:24.336Z,98333.13
2023-06-28T00:17:52.063Z,98331.88
2023-06-28T00:20:19.786Z,98331.38
2023-06-28T00:22:47.473Z,98330.20
2023-06-28T00:25:15.062Z,98327.20
2023-06-28T00:27:42.657Z,98322.30
2023-06-28T00:30:10.554Z,98322.00
2023-06-28T00:32:38.310Z,98324.15
2023-06-28T00:35:07.349Z,98325.01
2023-06-28T00:37:35.000Z,98325.81
2023-06-28T00:40:02.683Z,98327.02
2023-06-28T00:42:30.303Z,98324.94
2023-06-28T00:44:57.899Z,98324.61
2023-06-28T00:47:27.072Z,98323.94
2023-06-28T00:49:56.018Z,98323.13
2023-06-28T00:52:23.805Z,98321.45
2023-06-28T00:54:51.627Z,98321.83
2023-06-28T00:57:19.414Z,98325.77
2023-06-28T00:59:49.146Z,98328.48
2023-06-28T01:02:16.793Z,98332.02
2023-06-28T01:04:44.824Z,98331.47
2023-06-28T01:07:13.177Z,98328.64
2023-06-28T01:09:41.589Z,98330.80
2023-06-28T01:12:10.085Z,98324.77
2023-06-28T01:14:37.726Z,98315.95
2023-06-28T01:17:05.998Z,98315.02
2023-06-28T01:19:33.649Z,98314.86
2023-06-28T01:22:03.767Z,98315.06
2023-06-28T01:24:31.510Z,98315.48
2023-06-28T01:27:00.086Z,98315.17
2023-06-28T01:29:28.043Z,98316.50
2023-06-28T01:31:56.830Z,98315.73
2023-06-28T01:34:24.804Z,98314.09
2023-06-28T01:36:54.569Z,98313.30
2023-06-28T01:39:23.473Z,98316.17
2023-06-28T01:41:52.489Z,98314.67
2023-06-28T01:44:20.667Z,98318.80
2023-06-28T01:46:49.031Z,98319.02
2023-06-28T01:49:16.690Z,98319.20
2023-06-28T01:51:44.608Z,98318.48
2023-06-28T01:54:12.304Z,98316.83
2023-06-28T01:56:39.902Z,98314.96
2023-06-28T01:59:07.667Z,98316.91
2023-06-28T02:01:35.288Z,98318.34
2023-06-28T02:04:03.021Z,98315.54
2023-06-28T02:06:30.771Z,98316.80
2023-06-28T02:08:58.374Z,98319.69
2023-06-28T02:11:25.979Z,98324.27
2023-06-28T02:13:53.709Z,98325.14
2023-06-28T02:16:23.413Z,98326.70
2023-06-28T02:18:51.052Z,98321.60
2023-06-28T02:21:18.657Z,98317.73
2023-06-28T02:23:46.224Z,98315.80
2023-06-28T02:26:13.859Z,98314.01
2023-06-28T02:28:41.496Z,98313.58
2023-06-28T02:31:09.164Z,98314.86
2023-06-28T02:33:36.791Z,98314.10
2023-06-28T02:36:04.658Z,98316.43
2023-06-28T02:38:32.260Z,98316.23
2023-06-28T02:40:59.932Z,98313.80
2023-06-28T02:43:27.599Z,98314.58
2023-06-28T02:45:55.197Z,98314.92
2023-06-28T02:48:22.854Z,98319.33
2023-06-28T02:50:50.478Z,98322.31
2023-06-28T02:53:18.118Z,98325.27
2023-06-28T02:55:45.968Z,98323.02
2023-06-28T02:58:13.618Z,98324.98
2023-06-28T03:00:41.590Z,98324.08
2023-06-28T03:03:09.552Z,98325.54
2023-06-28T03:05:37.250Z,98321.21
2023-06-28T03:08:04.996Z,98318.45
2023-06-28T03:10:33.177Z,98322.06
2023-06-28T03:13:00.791Z,98323.94
2023-06-28T03:15:28.573Z,98323.52
2023-06-28T03:17:58.764Z,98319.47
2023-06-28T03:20:29.167Z,98317.87
2023-06-28T03:22:56.938Z,98315.38
2023-06-28T03:25:24.623Z,98319.48
2023-06-28T03:27:52.273Z,98316.43
2023-06-28T03:30:20.259Z,98319.36
2023-06-28T03:32:47.959Z,98316.38
2023-06-28T03:35:15.778Z,98315.58
2023-06-28T03:37:54.392Z,98320.69
2023-06-28T03:40:24.176Z,98322.50
2023-06-28T03:42:51.883Z,98325.46
2023-06-28T03:45:19.957Z,98324.95
2023-06-28T03:47:48.431Z,98329.36
2023-06-28T03:50:16.283Z,98332.83
2023-06-28T03:52:43.917Z,98336.36
2023-06-28T03:55:11.522Z,98337.32
2023-06-28T03:57:39.140Z,98335.86
2023-06-28T04:00:07.314Z,98333.30
2023-06-28T04:02:35.120Z,98336.75
2023-06-28T04:05:03.174Z,98335.36
2023-06-28T04:07:30.870Z,98336.18
2023-06-28T04:09:58.655Z,98337.95
2023-06-28T04:12:26.298Z,98335.09
2023-06-28T04:14:53.942Z,98338.06
2023-06-28T04:17:21.611Z,98338.34
2023-06-28T04:19:51.137Z,98335.33
2023-06-28T04:22:18.929Z,98336.55
2023-06-28T04:24:46.546Z,98338.77
2023-06-28T04:27:16.629Z,98343.82
2023-06-28T04:29:45.974Z,98346.03
2023-06-28T04:32:27.515Z,98342.54
2023-06-28T04:34:56.943Z,98344.50
2023-06-28T04:37:27.035Z,98342.27
2023-06-28T04:40:01.972Z,98344.45
2023-06-28T04:42:30.476Z,98343.67
2023-06-28T04:44:58.206Z,98339.71
2023-06-28T04:47:26.237Z,98337.36
2023-06-28T04:49:53.998Z,98341.98
2023-06-28T04:52:24.200Z,98339.62
2023-06-28T04:54:52.143Z,98342.51
2023-06-28T04:57:20.125Z,98342.48
2023-06-28T04:59:47.965Z,98344.41
2023-06-28T05:02:16.309Z,98346.17
2023-06-28T05:04:44.008Z,98351.25
2023-06-28T05:07:11.669Z,98345.69
2023-06-28T05:09:39.342Z,98343.67
2023-06-28T05:12:07.505Z,98345.40
2023-06-28T05:14:35.114Z,98342.20
2023-06-28T05:17:02.872Z,98340.59
2023-06-28T05:19:30.516Z,98336.04
2023-06-28T05:21:58.157Z,98339.01
2023-06-28T05:24:25.805Z,98337.23
2023-06-28T05:26:53.474Z,98333.77
2023-06-28T05:29:21.131Z,98334.50
2023-06-28T05:31:48.961Z,98333.46
2023-06-28T05:34:19.236Z,98334.44
2023-06-28T05:36:47.016Z,98337.72
2023-06-28T05:39:14.633Z,98340.02
2023-06-28T05:41:42.246Z,98339.09
2023-06-28T05:44:09.887Z,98340.02
2023-06-28T05:46:37.490Z,98338.11
2023-06-28T05:49:09.189Z,98336.85
2023-06-28T05:51:37.059Z,98337.55
2023-06-28T05:54:05.407Z,98335.10
2023-06-28T05:56:33.037Z,98338.77
2023-06-28T05:59:00.671Z,98338.55
2023-06-28T06:01:29.211Z,98343.70
2023-06-28T06:03:56.992Z,98346.38
2023-06-28T06:06:24.665Z,98344.13
2023-06-28T06:08:52.386Z,98340.27
2023-06-28T06:11:20.146Z,98338.06
2023-06-28T06:13:48.162Z,98337.09
2023-06-28T06:16:15.837Z,98334.58
2023-06-28T06:18:43.504Z,98331.07
2023-06-28T06:21:11.213Z,98334.38
2023-06-28T06:23:39.198Z,98334.99
2023-06-28T06:26:07.178Z,98336.02
2023-06-28T06:28:34.810Z,98331.11
2023-06-28T06:31:02.580Z,98329.16
2023-06-28T06:33:30.291Z,98325.50
2023-06-28T06:35:58.179Z,98324.00
2023-06-28T06:38:25.812Z,98320.39
2023-06-28T06:40:53.582Z,98320.39
2023-06-28T06:43:21.216Z,98315.44
2023-06-28T06:45:49.169Z,98315.79
2023-06-28T06:48:16.790Z,98316.06
2023-06-28T06:50:45.673Z,98310.95
2023-06-28T06:53:13.437Z,98312.27
2023-06-28T06:55:41.061Z,98316.75
2023-06-28T06:58:08.750Z,98316.52
2023-06-28T07:00:36.370Z,98321.42
2023-06-28T07:03:04.126Z,98324.48
2023-06-28T07:05:32.206Z,98323.45
2023-06-28T07:07:59.891Z,98324.10
2023-06-28T07:10:27.578Z,98323.80
2023-06-28T07:12:55.204Z,98322.90
2023-06-28T07:15:22.960Z,98319.27
2023-06-28T07:17:53.242Z,98319.25
2023-06-28T07:20:21.999Z,98317.52
2023-06-28T07:22:49.644Z,98318.70
2023-06-28T07:25:17.334Z,98312.67
2023-06-28T07:27:45.043Z,98312.92
2023-06-28T07:30:13.153Z,98319.14
2023-06-28T07:32:40.877Z,98317.70
2023-06-28T07:35:08.786Z,98319.00
2023-06-28T07:37:36.403Z,98317.48
2023-06-28T07:40:04.933Z,98318.73
2023-06-28T07:42:32.620Z,98317.17
2023-06-28T07:45:00.262Z,98314.92
2023-06-28T07:47:27.986Z,98309.55
2023-06-28T07:49:55.652Z,98308.46
2023-06-28T07:52:23.293Z,98307.43
2023-06-28T07:54:50.950Z,98311.90
2023-06-28T07:57:18.727Z,98301.26
2023-06-28T07:59:46.498Z,98303.90
2023-06-28T08:02:14.153Z,98304.88
2023-06-28T08:04:41.802Z,98306.91
2023-06-28T08:07:09.458Z,98302.36
2023-06-28T08:09:37.091Z,98298.38
2023-06-28T08:12:05.303Z,98298.38
2023-06-28T08:14:32.944Z,98294.23
2023-06-28T08:17:00.535Z,98290.30
2023-06-28T08:19:28.294Z,98295.64
2023-06-28T08:21:55.935Z,98289.68
2023-06-28T08:24:23.527Z,98285.70
2023-06-28T08:26:51.391Z,98280.61
2023-06-28T08:29:19.141Z,98275.34
2023-06-28T08:31:46.860Z,98279.69
2023-06-28T08:34:14.520Z,98277.30
2023-06-28T08:36:42.275Z,98275.34
2023-06-28T08:39:09.886Z,98271.41
2023-06-28T08:41:40.317Z,98269.38
2023-06-28T08:44:13.210Z,98271.23
2023-06-28T08:46:44.394Z,98267.94
2023-06-28T08:49:12.557Z,98265.22
2023-06-28T08:51:40.820Z,98264.10
2023-06-28T08:54:13.266Z,98262.96
2023-06-28T08:56:48.929Z,98268.25
2023-06-28T08:59:27.493Z,98263.90
2023-06-28T09:01:55.608Z,98260.23
2023-06-28T09:04:24.945Z,98257.11
2023-06-28T09:06:52.591Z,98258.87
2023-06-28T09:09:21.287Z,98255.10
2023-06-28T09:11:49.029Z,98250.64
2023-06-28T09:14:16.734Z,98255.54
2023-06-28T09:16:44.494Z,98250.70
2023-06-28T09:19:12.167Z,98254.91
2023-06-28T09:21:40.642Z,98251.48
2023-06-28T09:24:12.544Z,98248.76
2023-06-28T09:26:42.737Z,98249.39
2023-06-28T09:29:13.668Z,98248.46
2023-06-28T09:31:42.798Z,98257.66
2023-06-28T09:34:11.036Z,98257.46
2023-06-28T09:36:38.846Z,98258.65
2023-06-28T09:39:06.929Z,98260.66
2023-06-28T09:41:39.722Z,98263.10
2023-06-28T09:44:08.038Z,98260.77
2023-06-28T09:46:36.414Z,98261.66
2023-06-28T09:49:04.060Z,98264.07
2023-06-28T09:51:31.722Z,98265.73
2023-06-28T09:53:59.428Z,98269.30
2023-06-28T09:56:35.053Z,98272.27
2023-06-28T09:59:12.807Z,98278.14
2023-06-28T10:01:44.060Z,98278.58
2023-06-28T10:04:12.628Z,98275.07
2023-06-28T10:06:42.740Z,98274.94
2023-06-28T10:09:13.271Z,98269.06
2023-06-28T10:11:44.025Z,98273.84
2023-06-28T10:14:13.796Z,98271.84
2023-06-28T10:16:42.387Z,98265.11
2023-06-28T10:19:10.896Z,98272.63
2023-06-28T10:21:40.215Z,98275.05
2023-06-28T10:24:08.033Z,98272.59
2023-06-28T10:26:37.382Z,98267.58
2023-06-28T10:29:05.364Z,98266.00
2023-06-28T10:31:33.179Z,98267.27
2023-06-28T10:34:00.992Z,98261.30
2023-06-28T10:36:30.691Z,98254.60
2023-06-28T10:39:01.389Z,98252.54
2023-06-28T10:41:29.309Z,98247.11
2023-06-28T10:44:07.493Z,98242.91
2023-06-28T10:46:35.947Z,98236.58
2023-06-28T10:49:04.416Z,98232.88
2023-06-28T10:51:35.469Z,98227.41
2023-06-28T10:54:13.900Z,98223.45
2023-06-28T10:56:52.091Z,98209.23
2023-06-28T10:59:20.178Z,98211.30
2023-06-28T11:01:56.085Z,98220.26
2023-06-28T11:04:25.642Z,98226.48
2023-06-28T11:07:17.514Z,98242.91
2023-06-28T11:10:15.285Z,98247.91
2023-06-28T11:12:51.888Z,98250.56
2023-06-28T11:15:28.777Z,98251.80
2023-06-28T11:18:08.413Z,98253.11
2023-06-28T11:20:58.261Z,98252.14
2023-06-28T11:23:30.263Z,98250.88
2023-06-28T11:26:01.250Z,98248.11
2023-06-28T11:28:33.336Z,98247.88
2023-06-28T11:31:18.561Z,98250.48
2023-06-28T11:33:52.177Z,98249.09
2023-06-28T11:36:24.411Z,98245.20
2023-06-28T11:38:53.015Z,98245.98
2023-06-28T11:41:21.351Z,98245.33
2023-06-28T11:43:49.657Z,98242.06
2023-06-28T11:46:22.432Z,98239.33
2023-06-28T11:48:52.058Z,98243.02
2023-06-28T11:51:23.000Z,98251.77
2023-06-28T11:53:51.310Z,98246.15
2023-06-28T11:56:19.301Z,98240.70
2023-06-28T11:58:47.535Z,98234.67
2023-06-28T12:01:23.071Z,98235.52
2023-06-28T12:03:51.367Z,98223.55
2023-06-28T12:06:21.577Z,98229.92
2023-06-28T12:08:50.064Z,98228.31
2023-06-28T12:11:18.676Z,98228.13
2023-06-28T12:13:47.102Z,98229.31
2023-06-28T12:16:17.839Z,98228.61
2023-06-28T12:19:01.758Z,98225.66
2023-06-28T12:21:32.338Z,98223.73
2023-06-28T12:24:20.104Z,98226.59
2023-06-28T12:26:53.553Z,98223.21
2023-06-28T12:29:23.274Z,98220.92
2023-06-28T12:31:55.161Z,98220.40
2023-06-28T12:34:25.141Z,98216.05
2023-06-28T12:37:01.658Z,98217.20
2023-06-28T12:39:32.728Z,98211.66
2023-06-28T12:42:19.758Z,98215.58
2023-06-28T12:44:55.526Z,98224.02
2023-06-28T12:47:30.978Z,98221.27
2023-06-28T12:50:00.006Z,98227.77
2023-06-28T12:52:29.544Z,98221.88
2023-06-28T12:54:58.310Z,98226.31
2023-06-28T12:57:26.508Z,98226.89
2023-06-28T12:59:54.414Z,98235.69
2023-06-28T13:02:22.249Z,98241.96
2023-06-28T13:04:50.338Z,98245.60
2023-06-28T13:07:18.366Z,98251.01
2023-06-28T13:09:46.402Z,98247.98
2023-06-28T13:12:14.422Z,98247.63
2023-06-28T13:14:42.081Z,98248.73
2023-06-28T13:17:09.788Z,98252.34
2023-06-28T13:19:37.617Z,98253.66
2023-06-28T13:22:05.436Z,98259.70
2023-06-28T13:24:33.199Z,98260.56
2023-06-28T13:27:00.967Z,98264.21
2023-06-28T13:29:28.991Z,98266.19
2023-06-28T13:31:56.969Z,98269.58
2023-06-28T13:34:24.993Z,98285.67
2023-06-28T13:36:52.872Z,98292.96
2023-06-28T13:39:20.976Z,98304.27
2023-06-28T13:41:48.872Z,98311.08
2023-06-28T13:44:16.617Z,98313.31
2023-06-28T13:46:44.324Z,98321.10
2023-06-28T13:49:12.087Z,98330.35
2023-06-28T13:51:39.714Z,98329.60
2023-06-28T13:54:07.447Z,98333.46
2023-06-28T13:56:35.246Z,98336.09
2023-06-28T13:59:02.898Z,98328.44
2023-06-28T14:01:30.565Z,98331.96
2023-06-28T14:03:58.242Z,98336.94
2023-06-28T14:06:25.921Z,98333.55
2023-06-28T14:08:53.718Z,98333.05
2023-06-28T14:11:21.441Z,98341.85
2023-06-28T14:13:49.232Z,98341.81
2023-06-28T14:16:16.862Z,98340.81
2023-06-28T14:18:44.507Z,98347.26
2023-06-28T14:21:12.146Z,98344.27
2023-06-28T14:23:39.816Z,98349.44
2023-06-28T14:26:07.419Z,98351.27
2023-06-28T14:28:35.187Z,98358.23
2023-06-28T14:31:02.840Z,98358.83
2023-06-28T14:33:30.492Z,98358.23
2023-06-28T14:35:58.105Z,98357.16
2023-06-28T14:38:25.763Z,98366.95
2023-06-28T14:40:53.608Z,98366.81
2023-06-28T14:43:21.233Z,98357.59
2023-06-28T14:45:48.950Z,98364.61
2023-06-28T14:48:18.334Z,98360.33
2023-06-28T14:50:46.549Z,98361.02
2023-06-28T14:53:14.315Z,98357.75
2023-06-28T14:55:42.338Z,98351.31
2023-06-28T14:58:10.305Z,98352.29
2023-06-28T15:00:39.177Z,98354.25
2023-06-28T15:03:07.145Z,98356.70
2023-06-28T15:05:34.963Z,98364.04
2023-06-28T15:08:02.816Z,98361.59
2023-06-28T15:10:30.521Z,98361.41
2023-06-28T15:12:58.172Z,98357.02
2023-06-28T15:15:25.871Z,98358.84
2023-06-28T15:17:53.772Z,98360.65
2023-06-28T15:20:30.730Z,98363.73
2023-06-28T15:23:09.870Z,98359.63
2023-06-28T15:25:37.514Z,98360.85
2023-06-28T15:28:06.207Z,98366.12
2023-06-28T15:30:33.932Z,98366.17
2023-06-28T15:33:01.765Z,98360.65
2023-06-28T15:35:29.610Z,98372.41
2023-06-28T15:37:57.236Z,98372.45
2023-06-28T15:40:24.891Z,98370.99
2023-06-28T15:42:52.592Z,98370.91
2023-06-28T15:45:20.340Z,98369.23
2023-06-28T15:47:48.040Z,98362.23
2023-06-28T15:50:15.729Z,98363.12
2023-06-28T15:52:49.025Z,98362.02
2023-06-28T15:55:24.204Z,98363.20
2023-06-28T15:57:52.221Z,98360.34
2023-06-28T16:00:23.302Z,98362.63
2023-06-28T16:02:51.113Z,98361.43
2023-06-28T16:05:22.601Z,98365.85
2023-06-28T16:07:51.875Z,98363.06
2023-06-28T16:10:21.067Z,98366.39
2023-06-28T16:12:49.280Z,98364.48
2023-06-28T16:15:17.076Z,98361.18
2023-06-28T16:17:44.733Z,98363.59
2023-06-28T16:20:12.520Z,98361.43
2023-06-28T16:22:40.464Z,98364.02
2023-06-28T16:25:08.620Z,98364.70
2023-06-28T16:27:36.325Z,98367.42
2023-06-28T16:30:04.432Z,98364.59
2023-06-28T16:32:35.010Z,98368.17
2023-06-28T16:35:02.665Z,98369.91
2023-06-28T16:37:30.291Z,98372.16
2023-06-28T16:39:58.101Z,98372.44
2023-06-28T16:42:25.710Z,98367.91
2023-06-28T16:44:53.353Z,98368.98
2023-06-28T16:47:21.100Z,98373.02
2023-06-28T16:49:48.732Z,98366.98
2023-06-28T16:52:16.860Z,98363.63
2023-06-28T16:54:44.518Z,98363.08
2023-06-28T16:57:12.166Z,98356.35
2023-06-28T16:59:39.768Z,98352.73
2023-06-28T17:02:07.467Z,98355.67
2023-06-28T17:04:35.176Z,98353.02
2023-06-28T17:07:02.902Z,98356.42
2023-06-28T17:09:30.530Z,98359.02
2023-06-28T17:11:58.140Z,98357.31
2023-06-28T17:14:28.507Z,98359.79
2023-06-28T17:16:56.162Z,98360.70
2023-06-28T17:19:23.777Z,98361.19
2023-06-28T17:21:51.352Z,98363.64
2023-06-28T17:24:19.099Z,98364.96
2023-06-28T17:26:46.696Z,98363.84
2023-06-28T17:29:14.324Z,98358.47
2023-06-28T17:31:41.915Z,98362.48
2023-06-28T17:34:09.562Z,98361.66
2023-06-28T17:36:41.367Z,98361.70
2023-06-28T17:39:11.602Z,98359.59
2023-06-28T17:41:39.231Z,98360.89
2023-06-28T17:44:06.819Z,98362.11
2023-06-28T17:46:35.944Z,98362.93
2023-06-28T17:49:03.803Z,98364.73
2023-06-28T17:51:31.431Z,98361.40
2023-06-28T17:53:59.019Z,98361.27
2023-06-28T17:56:26.719Z,98358.77
2023-06-28T17:58:54.410Z,98361.14
2023-06-28T18:01:22.122Z,98362.00
2023-06-28T18:03:49.787Z,98363.29
2023-06-28T18:06:17.466Z,98361.83
2023-06-28T18:08:45.042Z,98365.37
2023-06-28T18:11:12.639Z,98361.80
2023-06-28T18:13:40.363Z,98362.91
2023-06-28T18:16:08.038Z,98363.96
2023-06-28T18:18:36.100Z,98360.95
2023-06-28T18:21:03.861Z,98361.23
2023-06-28T18:23:34.486Z,98354.58
2023-06-28T18:26:02.045Z,98356.33
2023-06-28T18:28:29.668Z,98353.84
2023-06-28T18:30:57.443Z,98355.16
2023-06-28T18:33:25.076Z,98360.18
2023-06-28T18:35:53.057Z,98357.64
2023-06-28T18:38:20.796Z,98362.22
2023-06-28T18:40:48.451Z,98363.05
2023-06-28T18:43:16.028Z,98357.31
2023-06-28T18:45:43.759Z,98356.81
2023-06-28T18:48:11.663Z,98363.71
2023-06-28T18:50:39.326Z,98362.25
2023-06-28T18:53:06.947Z,98366.63
2023-06-28T18:55:34.556Z,98369.09
2023-06-28T18:58:02.217Z,98371.83
2023-06-28T19:00:29.884Z,98371.33
2023-06-28T19:02:57.626Z,98370.27
2023-06-28T19:05:25.624Z,98371.92
2023-06-28T19:07:53.287Z,98374.36
2023-06-28T19:10:23.117Z,98375.20
2023-06-28T19:12:50.877Z,98377.30
2023-06-28T19:15:18.450Z,98380.27
2023-06-28T19:17:46.092Z,98383.84
2023-06-28T19:20:14.234Z,98385.08
2023-06-28T19:22:41.892Z,98381.66
2023-06-28T19:25:09.822Z,98383.86
2023-06-28T19:27:37.545Z,98384.63
2023-06-28T19:30:05.760Z,98389.45
2023-06-28T19:32:33.567Z,98388.58
2023-06-28T19:35:01.298Z,98388.34
2023-06-28T19:37:29.039Z,98385.64
2023-06-28T19:39:56.672Z,98385.55
2023-06-28T19:42:24.299Z,98386.52
2023-06-28T19:44:52.217Z,98384.98
2023-06-28T19:47:19.982Z,98383.61
2023-06-28T19:49:47.664Z,98383.27
2023-06-28T19:52:15.267Z,98387.02
2023-06-28T19:54:43.298Z,98387.67
2023-06-28T19:57:11.151Z,98391.61
2023-06-28T19:59:38.863Z,98393.98
2023-06-28T20:02:06.938Z,98395.36
2023-06-28T20:04:35.036Z,98396.37
2023-06-28T20:07:03.914Z,98396.34
2023-06-28T20:09:31.634Z,98397.98
2023-06-28T20:11:59.254Z,98399.73
2023-06-28T20:14:26.876Z,98397.13
2023-06-28T20:16:54.549Z,98402.85
2023-06-28T20:19:22.246Z,98398.41
2023-06-28T20:21:52.902Z,98398.66
2023-06-28T20:24:20.652Z,98398.11
2023-06-28T20:26:48.270Z,98402.90
2023-06-28T20:29:15.999Z,98404.77
2023-06-28T20:31:43.713Z,98406.69
2023-06-28T20:34:11.385Z,98406.02
2023-06-28T20:36:39.051Z,98408.50
2023-06-28T20:39:06.771Z,98407.64
2023-06-28T20:41:34.380Z,98404.45
2023-06-28T20:44:01.985Z,98404.13
2023-06-28T20:46:29.689Z,98406.75
2023-06-28T20:48:57.302Z,98407.42
2023-06-28T20:51:24.915Z,98410.01
2023-06-28T20:53:52.573Z,98410.52
2023-06-28T20:56:20.357Z,98412.39
2023-06-28T20:58:48.040Z,98409.95
2023-06-28T21:01:15.714Z,98409.05
2023-06-28T21:03:43.368Z,98410.87
2023-06-28T21:06:11.087Z,98409.74
2023-06-28T21:08:38.714Z,98409.48
2023-06-28T21:11:06.346Z,98408.80
2023-06-28T21:13:33.997Z,98408.96
2023-06-28T21:16:01.663Z,98407.55
2023-06-28T21:18:29.341Z,98404.07
2023-06-28T21:20:56.911Z,98407.27
2023-06-28T21:23:24.547Z,98407.17
2023-06-28T21:25:52.181Z,98406.85
2023-06-28T21:28:19.985Z,98406.88
2023-06-28T21:30:47.624Z,98411.90
2023-06-28T21:33:15.228Z,98413.38
2023-06-28T21:35:43.132Z,98413.67
2023-06-28T21:38:11.050Z,98412.92
2023-06-28T21:40:38.681Z,98411.85
2023-06-28T21:43:06.455Z,98410.55
2023-06-28T21:45:34.095Z,98413.34
2023-06-28T21:48:01.869Z,98407.83
2023-06-28T21:50:29.655Z,98410.52
2023-06-28T21:52:57.304Z,98412.61
2023-06-28T21:55:25.061Z,98413.02
2023-06-28T21:57:52.723Z,98410.77
2023-06-28T22:00:25.577Z,98412.43
2023-06-28T22:02:53.605Z,98407.71
2023-06-28T22:05:23.371Z,98408.36
2023-06-28T22:07:51.181Z,98406.15
2023-06-28T22:10:19.453Z,98407.46
2023-06-28T22:12:47.132Z,98405.79
2023-06-28T22:15:15.435Z,98409.79
2023-06-28T22:17:43.172Z,98408.87
2023-06-28T22:20:11.162Z,98411.05
2023-06-28T22:22:38.973Z,98411.34
2023-06-28T22:25:06.801Z,98409.84
2023-06-28T22:27:34.431Z,98413.15
2023-06-28T22:30:02.412Z,98411.23
2023-06-28T22:32:30.251Z,98408.67
2023-06-28T22:34:57.865Z,98413.96
2023-06-28T22:37:25.503Z,98416.40
2023-06-28T22:39:53.142Z,98417.09
2023-06-28T22:42:21.036Z,98417.71
2023-06-28T22:44:48.625Z,98423.49
2023-06-28T22:47:16.252Z,98426.02
2023-06-28T22:49:45.098Z,98427.71
2023-06-28T22:52:12.799Z,98430.75
2023-06-28T22:54:40.385Z,98430.02
2023-06-28T22:57:07.995Z,98424.16
2023-06-28T22:59:35.608Z,98426.31
2023-06-28T23:02:03.462Z,98427.11
2023-06-28T23:04:31.088Z,98425.01
2023-06-28T23:06:58.743Z,98423.71
2023-06-28T23:09:26.363Z,98425.03
2023-06-28T23:11:54.007Z,98428.88
2023-06-28T23:14:21.690Z,98427.98
2023-06-28T23:16:49.326Z,98429.71
2023-06-28T23:19:16.902Z,98431.77
2023-06-28T23:21:44.936Z,98428.50
2023-06-28T23:24:12.633Z,98431.52
2023-06-28T23:26:40.274Z,98431.65
2023-06-28T23:29:07.892Z,98434.77
2023-06-28T23:31:35.493Z,98437.27
2023-06-28T23:34:03.161Z,98438.95
2023-06-28T23:36:31.113Z,98434.15
2023-06-28T23:38:58.705Z,98438.56
2023-06-28T23:41:26.337Z,98437.86
2023-06-28T23:43:54.364Z,98438.69
2023-06-28T23:46:21.971Z,98443.95
2023-06-28T23:48:49.584Z,98447.44
2023-06-28T23:51:17.187Z,98448.23
2023-06-28T23:53:44.806Z,98447.88
2023-06-28T23:56:12.593Z,98446.70
2023-06-28T23:58:41.058Z,98449.09
